»·PEaware :: WAT1418 KELP-KPHX

WAT1418 :: KELP-KPHX

FLIGHT INFORMATION

Flight Status: Arrived
Operator:
Walker Air Transport
More flights by this operator :: More flights under this callsign
Pilot: Robin K. (36346)
Aircraft: BOEING 737-600
(B736)
More flights by this aircraft type
Origin: KELP El Paso Intl
United States
Destination: KPHX Phoenix Sky Harbor Intl
United States
More flights between these airports :: More routes between these airports
Route: ATKNN5 ATKNN DRRVR PINNG1
File this flight plan on PilotEdge
Remarks: RWY reposition approved by Ops, unable vis approaches.
Altitude:
(Current/Filed)
38,000ft
Speed:
(Current/Filed)
449kts
Departed: 30-Nov-23 12:34 PM
Arrived: 30-Nov-23 01:41 PM
Distance/Time
Traveled:
301nm/1:07
Distance/Time
To Go:
Arrived

Flight Plot

Page will automatically refresh every two minutes.

Flight plan parsing failed; only flown route is shown


Map Options




Map Legend


Flown Route
Filed Route
Departure Airport
Arrival Airport
Navaid (VOR, NDB)
Fix

Horizontal Profiles

Position Reports

Time Latitude Longitude Heading Altitude Ground
Speed
30-Nov-23 12:05 31.800442 -106.395153 205 3930ft 0kts
30-Nov-23 12:06 31.800442 -106.395153 205 3930ft 0kts
30-Nov-23 12:07 31.800442 -106.395153 205 3930ft 0kts
30-Nov-23 12:08 31.800442 -106.395153 205 3930ft 0kts
30-Nov-23 12:09 31.800442 -106.395153 205 3930ft 0kts
30-Nov-23 12:10 31.800442 -106.395153 205 3930ft 0kts
30-Nov-23 12:11 31.800442 -106.395153 205 3930ft 0kts
30-Nov-23 12:12 31.800442 -106.395153 205 3930ft 0kts
30-Nov-23 12:13 31.800442 -106.395153 205 3930ft 0kts
30-Nov-23 12:14 31.800442 -106.395153 205 3930ft 0kts
30-Nov-23 12:15 31.800442 -106.395153 205 3930ft 0kts
30-Nov-23 12:16 31.800442 -106.395153 205 3930ft 0kts
30-Nov-23 12:17 31.800442 -106.395153 205 3930ft 0kts
30-Nov-23 12:18 31.800442 -106.395153 205 3930ft 0kts
30-Nov-23 12:19 31.800442 -106.395153 205 3930ft 0kts
30-Nov-23 12:20 31.800442 -106.395153 205 3930ft 0kts
30-Nov-23 12:21 31.800442 -106.395153 205 3930ft 0kts
30-Nov-23 12:23 31.800442 -106.395153 205 3930ft 0kts
30-Nov-23 12:24 31.800442 -106.395153 205 3930ft 0kts
30-Nov-23 12:25 31.800442 -106.395153 205 3930ft 0kts
30-Nov-23 12:26 31.800442 -106.395153 205 3930ft 0kts
30-Nov-23 12:27 31.800442 -106.395153 205 3930ft 0kts
30-Nov-23 12:28 31.800442 -106.395153 205 3930ft 0kts
30-Nov-23 12:29 31.800442 -106.395153 205 3930ft 0kts
30-Nov-23 12:30 31.800442 -106.395153 205 3930ft 0kts
30-Nov-23 12:31 31.800442 -106.395153 205 3930ft 0kts
30-Nov-23 12:32 31.800442 -106.395153 205 3930ft 0kts
30-Nov-23 12:33 31.800718 -106.361696 273 3968ft 61kts
30-Nov-23 12:34 31.797448 -106.403566 241 6948ft 139kts
30-Nov-23 12:35 31.771089 -106.462795 246 8735ft 252kts
30-Nov-23 12:36 31.783368 -106.544352 302 11853ft 305kts
30-Nov-23 12:37 31.833145 -106.627513 302 15844ft 313kts
30-Nov-23 12:38 31.851687 -106.725609 276 19456ft 313kts
30-Nov-23 12:39 31.863064 -106.827330 278 22863ft 316kts
30-Nov-23 12:40 31.876686 -106.930661 278 25622ft 324kts
30-Nov-23 12:41 31.890996 -107.036773 278 28064ft 333kts
30-Nov-23 12:42 31.905714 -107.146049 278 30260ft 342kts
30-Nov-23 12:43 31.920574 -107.257073 278 32313ft 341kts
30-Nov-23 12:44 31.934971 -107.365320 278 34324ft 336kts
30-Nov-23 12:45 31.949479 -107.475197 277 35492ft 343kts
30-Nov-23 12:46 31.964220 -107.587570 277 36657ft 349kts
30-Nov-23 12:47 31.979163 -107.702359 277 37402ft 362kts
30-Nov-23 12:48 31.994406 -107.820216 277 37876ft 364kts
30-Nov-23 12:49 32.009451 -107.937386 277 37878ft 359kts
30-Nov-23 12:50 32.024219 -108.053340 277 37862ft 358kts
30-Nov-23 12:51 32.038956 -108.169937 277 37864ft 360kts
30-Nov-23 12:52 32.053683 -108.287322 277 37873ft 363kts
30-Nov-23 12:53 32.068402 -108.405555 276 37872ft 365kts
30-Nov-23 12:54 32.083021 -108.523879 276 37873ft 365kts
30-Nov-23 12:55 32.097476 -108.641798 276 37877ft 360kts
30-Nov-23 12:56 32.111594 -108.757912 276 37887ft 357kts
30-Nov-23 12:57 32.125578 -108.873839 276 37886ft 358kts
30-Nov-23 12:58 32.139520 -108.990325 276 37894ft 359kts
30-Nov-23 12:59 32.153419 -109.107364 276 37888ft 361kts
30-Nov-23 13:00 32.167229 -109.224549 276 37897ft 361kts
30-Nov-23 13:01 32.184462 -109.341148 281 37900ft 361kts
30-Nov-23 13:02 32.209893 -109.456155 281 37894ft 361kts
30-Nov-23 13:03 32.234318 -109.570463 281 37897ft 359kts
30-Nov-23 13:04 32.258546 -109.685407 281 37895ft 360kts
30-Nov-23 13:05 32.282563 -109.799977 281 37899ft 360kts
30-Nov-23 13:06 32.306496 -109.914733 280 37905ft 358kts
30-Nov-23 13:07 32.330190 -110.028838 280 37911ft 358kts
30-Nov-23 13:08 32.353808 -110.143365 280 37910ft 359kts
30-Nov-23 13:09 32.377368 -110.257941 280 37903ft 357kts
30-Nov-23 13:10 32.400745 -110.372225 280 35844ft 354kts
30-Nov-23 13:11 32.423824 -110.485697 279 32616ft 356kts
30-Nov-23 13:12 32.446338 -110.596779 279 30291ft 336kts
30-Nov-23 13:13 32.467862 -110.701205 284 28017ft 321kts
30-Nov-23 13:14 32.517711 -110.795305 297 26354ft 350kts
30-Nov-23 13:15 32.571989 -110.889859 297 24797ft 342kts
30-Nov-23 13:16 32.624929 -110.982625 298 23461ft 340kts
30-Nov-23 13:17 32.678057 -111.075956 298 22031ft 342kts
30-Nov-23 13:18 32.731192 -111.169514 299 20685ft 340kts
30-Nov-23 13:19 32.782024 -111.259171 298 19390ft 317kts
30-Nov-23 13:20 32.831781 -111.347417 299 18095ft 326kts
30-Nov-23 13:21 32.881640 -111.435879 299 16805ft 320kts
30-Nov-23 13:22 32.931225 -111.519575 304 15574ft 295kts
30-Nov-23 13:23 32.982170 -111.594589 305 14456ft 290kts
30-Nov-23 13:24 33.032484 -111.669765 305 13284ft 290kts
30-Nov-23 13:26 33.082569 -111.744882 305 12123ft 287kts
30-Nov-23 13:27 33.131930 -111.819055 305 11018ft 284kts
30-Nov-23 13:28 33.180897 -111.892789 306 9909ft 283kts
30-Nov-23 13:29 33.228454 -111.964486 305 8747ft 261kts
30-Nov-23 13:30 33.271802 -112.029863 305 7756ft 239kts
30-Nov-23 13:31 33.309644 -112.090572 292 7048ft 225kts
30-Nov-23 13:32 33.335060 -112.158646 290 7017ft 223kts
30-Nov-23 13:33 33.359221 -112.226012 290 5675ft 219kts
30-Nov-23 13:34 33.382433 -112.291413 289 4841ft 208kts
30-Nov-23 13:35 33.422048 -112.337018 10 4836ft 223kts
30-Nov-23 13:36 33.431592 -112.278894 101 4721ft 199kts
30-Nov-23 13:37 33.429133 -112.211997 92 4003ft 195kts
30-Nov-23 13:38 33.429008 -112.151891 92 3152ft 180kts
30-Nov-23 13:39 33.428946 -112.097786 93 2318ft 144kts
30-Nov-23 13:40 33.428874 -112.049928 90 1561ft 135kts
30-Nov-23 13:41 33.428942 -112.009807 88 1129ft 33kts

Navigation Log

Ident Type
Flight plan parsing failed, navigation log unavailable